Time;durP1;ratioP1;P1;durP2;ratioP2;P2;SDS_P1;SDS_P2;PMS_P1;PMS_P2;Temp;Humidity;BMP_temperature;BMP_pressure;BME280_temperature;BME280_humidity;BME280_pressure;Samples;Min_cycle;Max_cycle;Signal;HPM_P1;HPM_P2
2021/12/05 00:23:03;;;;;;;29.55;7.35;;;;;;;2.18;100.00;99649.75;5039922;28;20587;-71
2021/12/05 00:25:31;;;;;;;28.50;7.70;;;;;;;2.15;100.00;99649.69;5039960;28;20033;-69
2021/12/05 00:39:11;;;;;;;28.08;7.22;;;;;;;2.09;100.00;99643.47;5038328;28;20163;-69
2021/12/05 00:56:54;;;;;;;29.35;8.38;;;;;;;1.73;100.00;99648.84;5095876;28;20035;-69
2021/12/05 00:59:37;;;;;;;32.13;8.93;;;;;;;1.63;100.00;99646.88;5119478;27;20483;-69
2021/12/05 01:15:32;;;;;;;34.45;10.30;;;;;;;1.37;100.00;99658.50;5043561;28;20021;-69
2021/12/05 01:20:32;;;;;;;33.53;9.80;;;;;;;1.29;100.00;99649.63;5043318;28;20072;-69
2021/12/05 01:23:05;;;;;;;33.67;9.35;;;;;;;1.28;100.00;99657.41;5042928;28;20036;-69
2021/12/05 01:25:46;;;;;;;34.40;9.80;;;;;;;1.19;100.00;99658.06;5043251;28;20116;-69
2021/12/05 01:38:44;;;;;;;31.65;9.90;;;;;;;1.14;100.00;99644.09;5043570;28;20535;-69
2021/12/05 01:55:06;;;;;;;32.37;8.73;;;;;;;1.12;100.00;99645.75;5040816;28;20045;-69
2021/12/05 02:29:33;;;;;;;31.27;8.05;;;;;;;1.13;100.00;99637.09;5040361;28;20033;-69
2021/12/05 02:43:35;;;;;;;30.00;7.70;;;;;;;1.31;100.00;99628.81;5123006;27;20117;-68
2021/12/05 02:46:04;;;;;;;26.42;7.28;;;;;;;1.26;100.00;99625.25;5124610;27;20045;-69
2021/12/05 02:48:34;;;;;;;29.73;7.43;;;;;;;1.28;100.00;99631.38;5124284;27;20038;-68
2021/12/05 02:51:03;;;;;;;26.88;6.93;;;;;;;1.23;100.00;99628.66;5124885;27;20045;-70
2021/12/05 02:53:35;;;;;;;28.83;7.32;;;;;;;1.20;100.00;99626.88;5124043;27;20027;-70
2021/12/05 02:56:01;;;;;;;29.98;7.43;;;;;;;1.14;100.00;99624.13;5107362;27;20019;-71
2021/12/05 03:03:27;;;;;;;25.13;6.95;;;;;;;1.23;100.00;99633.88;5123283;27;20043;-70
2021/12/05 03:06:00;;;;;;;25.77;7.10;;;;;;;1.29;100.00;99635.72;5125354;27;20027;-71
2021/12/05 03:08:26;;;;;;;26.20;7.07;;;;;;;1.43;100.00;99636.03;5123103;27;20023;-68
2021/12/05 03:10:54;;;;;;;27.55;7.28;;;;;;;1.48;100.00;99629.22;5125702;27;20460;-70
2021/12/05 03:13:19;;;;;;;25.23;6.97;;;;;;;1.53;100.00;99644.09;5122376;27;20413;-70
2021/12/05 03:15:45;;;;;;;28.33;7.32;;;;;;;1.53;100.00;99630.16;5118334;27;20042;-69
2021/12/05 03:18:10;;;;;;;26.98;7.07;;;;;;;1.54;100.00;99624.13;5125416;27;20111;-72
2021/12/05 03:20:36;;;;;;;27.92;7.70;;;;;;;1.52;100.00;99618.88;5123213;27;20062;-75
2021/12/05 03:23:02;;;;;;;25.83;7.70;;;;;;;1.61;100.00;99609.50;5123407;27;20130;-71
2021/12/05 03:25:28;;;;;;;26.20;7.70;;;;;;;1.63;100.00;99613.91;5124451;27;20080;-70
2021/12/05 03:27:54;;;;;;;26.60;7.68;;;;;;;1.60;100.00;99613.81;5122284;27;20027;-71
2021/12/05 03:30:22;;;;;;;27.63;7.65;;;;;;;1.57;100.00;99611.16;5125863;27;20020;-71
2021/12/05 03:32:50;;;;;;;27.65;8.00;;;;;;;1.61;100.00;99617.31;5117921;27;20028;-70
2021/12/05 03:35:18;;;;;;;27.50;8.52;;;;;;;1.64;100.00;99617.38;5117757;27;20102;-75
2021/12/05 03:37:46;;;;;;;26.35;8.43;;;;;;;1.65;100.00;99612.22;5125430;27;20023;-69
2021/12/05 03:40:12;;;;;;;27.88;8.35;;;;;;;1.71;100.00;99616.66;5122355;27;20019;-69
2021/12/05 03:42:38;;;;;;;29.15;9.25;;;;;;;1.69;100.00;99613.13;5124053;27;20147;-72
2021/12/05 03:45:08;;;;;;;27.42;8.93;;;;;;;1.64;100.00;99620.88;5123561;27;20389;-70
2021/12/05 03:47:33;;;;;;;27.50;9.73;;;;;;;1.68;100.00;99620.09;5123686;27;20028;-70
2021/12/05 03:49:59;;;;;;;29.30;9.60;;;;;;;1.76;100.00;99619.38;5124267;27;20076;-69
2021/12/05 03:52:24;;;;;;;25.98;9.35;;;;;;;1.80;100.00;99610.75;5122242;27;20031;-70
2021/12/05 03:54:51;;;;;;;28.45;10.20;;;;;;;1.81;100.00;99620.34;5125122;27;20027;-69
2021/12/05 03:57:16;;;;;;;29.90;10.40;;;;;;;1.81;100.00;99620.34;5117659;27;20024;-70
2021/12/05 03:59:42;;;;;;;28.45;10.73;;;;;;;1.92;100.00;99621.41;5125097;27;20058;-70
2021/12/05 04:02:08;;;;;;;26.83;9.90;;;;;;;2.00;100.00;99622.47;5122649;27;20019;-70
2021/12/05 04:04:34;;;;;;;27.08;10.60;;;;;;;2.00;100.00;99619.84;5123521;28;20028;-70
2021/12/05 04:07:02;;;;;;;26.63;10.07;;;;;;;2.02;100.00;99623.34;5124063;28;20019;-70
2021/12/05 04:09:28;;;;;;;25.77;10.50;;;;;;;2.01;100.00;99626.84;5122360;28;20348;-69
2021/12/05 04:11:58;;;;;;;27.40;10.70;;;;;;;2.06;100.00;99627.78;5124203;28;20031;-70
2021/12/05 04:14:28;;;;;;;26.63;10.23;;;;;;;2.05;100.00;99620.84;5122298;28;20028;-70
2021/12/05 04:16:54;;;;;;;25.85;10.20;;;;;;;2.03;100.00;99625.13;5124748;28;20035;-70
2021/12/05 04:19:20;;;;;;;25.92;9.75;;;;;;;2.04;100.00;99626.88;5121629;28;20080;-70
2021/12/05 04:21:46;;;;;;;26.40;9.82;;;;;;;2.02;100.00;99615.53;5117068;28;20044;-70
2021/12/05 04:24:13;;;;;;;28.00;10.57;;;;;;;2.00;100.00;99630.28;5124697;28;20023;-70
2021/12/05 04:26:40;;;;;;;25.77;9.45;;;;;;;2.02;100.00;99627.69;5122259;28;20129;-70
2021/12/05 04:29:06;;;;;;;25.80;10.10;;;;;;;2.00;100.00;99627.69;5123572;28;20375;-70
2021/12/05 04:31:34;;;;;;;28.42;10.60;;;;;;;1.99;100.00;99625.03;5123029;28;20051;-70
2021/12/05 04:33:59;;;;;;;26.60;10.00;;;;;;;2.07;100.00;99636.50;5125266;27;20023;-69
2021/12/05 04:36:25;;;;;;;23.48;8.93;;;;;;;2.10;100.00;99626.13;5128370;27;20114;-69
2021/12/05 04:38:50;;;;;;;25.05;9.55;;;;;;;2.07;100.00;99626.94;5125482;27;20019;-70
2021/12/05 04:41:16;;;;;;;26.58;9.80;;;;;;;2.06;100.00;99639.97;5120794;27;20020;-70
2021/12/05 04:43:42;;;;;;;24.52;9.38;;;;;;;2.12;100.00;99629.63;5128280;27;20031;-69
2021/12/05 04:46:12;;;;;;;25.23;9.80;;;;;;;2.11;100.00;99627.00;5107944;27;20023;-70
2021/12/05 04:48:38;;;;;;;25.25;9.40;;;;;;;2.07;100.00;99634.78;5127330;27;20053;-70
2021/12/05 04:51:05;;;;;;;26.50;9.50;;;;;;;2.04;100.00;99633.81;5126898;27;20109;-70
2021/12/05 04:53:30;;;;;;;25.75;9.98;;;;;;;2.02;100.00;99633.78;5126274;27;20080;-70
2021/12/05 04:55:57;;;;;;;25.50;9.82;;;;;;;2.02;100.00;99625.97;5127734;27;20023;-71
2021/12/05 04:58:24;;;;;;;25.15;9.18;;;;;;;2.01;100.00;99625.94;5125561;27;20019;-72
2021/12/05 05:00:51;;;;;;;26.73;10.15;;;;;;;1.95;100.00;99626.69;5128348;27;20088;-71
2021/12/05 05:03:18;;;;;;;25.30;9.73;;;;;;;1.97;100.00;99625.00;5120775;27;20038;-71
2021/12/05 05:06:01;;;;;;;29.02;9.77;;;;;;;1.99;100.00;99618.09;5128140;27;20370;-71
2021/12/05 05:08:29;;;;;;;24.45;8.90;;;;;;;2.00;100.00;99625.06;5122801;27;20466;-73
2021/12/05 05:10:55;;;;;;;24.73;9.05;;;;;;;1.96;100.00;99622.38;5128100;27;20098;-73
2021/12/05 05:13:20;;;;;;;23.98;9.27;;;;;;;1.97;100.00;99619.81;5124549;27;20430;-75
2021/12/05 05:15:45;;;;;;;25.88;9.48;;;;;;;1.97;100.00;99625.00;5128101;27;20525;-72
2021/12/05 05:18:12;;;;;;;24.38;9.65;;;;;;;1.94;100.00;99630.16;5125162;27;20027;-71
2021/12/05 05:23:38;;;;;;;25.02;9.43;;;;;;;1.98;100.00;99631.09;5126607;27;20502;-71
2021/12/05 05:51:46;;;;;;;20.75;8.07;;;;;;;1.91;100.00;99666.59;5124228;27;20516;-70
2021/12/05 05:54:12;;;;;;;21.05;7.30;;;;;;;1.82;100.00;99664.69;5126917;27;20106;-69
2021/12/05 05:56:40;;;;;;;19.55;7.15;;;;;;;1.78;100.00;99665.47;5125009;27;20028;-70
2021/12/05 05:59:14;;;;;;;20.90;7.90;;;;;;;1.69;100.00;99671.34;5125512;27;20125;-70
2021/12/05 06:04:08;;;;;;;20.65;7.57;;;;;;;1.67;100.00;99653.94;5108411;27;20040;-69
2021/12/05 06:06:34;;;;;;;21.58;7.57;;;;;;;1.64;100.00;99670.38;5125586;27;20102;-70
2021/12/05 06:09:00;;;;;;;19.92;6.95;;;;;;;1.62;100.00;99674.69;5125083;27;20027;-70
2021/12/05 06:11:26;;;;;;;20.98;7.32;;;;;;;1.57;100.00;99671.06;5126533;27;20023;-70
2021/12/05 06:13:52;;;;;;;20.45;7.30;;;;;;;1.50;100.00;99680.50;5123284;27;20043;-70
2021/12/05 06:16:19;;;;;;;21.10;7.50;;;;;;;1.51;100.00;99677.03;5119716;27;20034;-70
2021/12/05 06:18:45;;;;;;;20.20;7.50;;;;;;;1.51;100.00;99671.81;5126467;27;20023;-71
2021/12/05 06:21:12;;;;;;;19.10;6.68;;;;;;;1.52;100.00;99680.53;5124015;27;20034;-70
2021/12/05 06:23:38;;;;;;;19.30;7.40;;;;;;;1.46;100.00;99685.59;5125726;27;20020;-69
2021/12/05 06:26:08;;;;;;;20.60;7.45;;;;;;;1.48;100.00;99689.13;5125038;27;20023;-69
2021/12/05 06:28:40;;;;;;;20.40;7.47;;;;;;;1.46;100.00;99683.00;5124575;27;20051;-70
2021/12/05 06:47:32;;;;;;;20.58;8.60;;;;;;;1.44;100.00;99706.38;5021566;28;20557;-73
2021/12/05 06:49:57;;;;;;;21.70;8.55;;;;;;;1.45;100.00;99709.88;5022776;28;20124;-71
2021/12/05 06:52:24;;;;;;;21.45;8.70;;;;;;;1.47;100.00;99710.78;5019791;28;20041;-70
2021/12/05 06:54:50;;;;;;;22.55;9.23;;;;;;;1.46;100.00;99716.88;5023469;28;20103;-69
2021/12/05 06:57:16;;;;;;;23.50;9.45;;;;;;;1.46;100.00;99709.06;5020155;28;20046;-72
2021/12/05 06:59:45;;;;;;;22.85;9.55;;;;;;;1.49;100.00;99719.53;5022429;28;20216;-70
2021/12/05 07:02:13;;;;;;;23.50;9.75;;;;;;;1.49;100.00;99722.16;5020653;28;20037;-69
2021/12/05 07:07:25;;;;;;;22.75;9.68;;;;;;;1.49;100.00;99741.25;5019968;28;20045;-69
2021/12/05 07:09:51;;;;;;;23.55;10.35;;;;;;;1.53;100.00;99743.09;5034373;28;20548;-70
2021/12/05 07:13:14;;;;;;;22.58;9.93;;;;;;;1.56;100.00;99753.56;5039245;28;20079;-72
2021/12/05 07:21:40;;;;;;;23.63;10.15;;;;;;;1.63;100.00;99749.41;5035693;28;20444;-70
2021/12/05 07:42:45;;;;;;;;;;;;;;;1.68;100.00;99771.22;5041142;28;20496;-71
2021/12/05 07:45:16;;;;;;;26.48;12.70;;;;;;;1.70;100.00;99781.66;5043557;28;19920;-71
2021/12/05 07:47:45;;;;;;;25.13;12.30;;;;;;;1.72;100.00;99786.06;5041416;28;20037;-71
2021/12/05 07:50:12;;;;;;;26.15;12.45;;;;;;;1.73;100.00;99793.06;5043345;28;20025;-71
2021/12/05 07:52:44;;;;;;;24.90;11.85;;;;;;;1.75;100.00;99795.69;5042517;28;20037;-72
2021/12/05 07:55:30;;;;;;;26.58;12.95;;;;;;;1.75;100.00;99800.91;5097442;27;20027;-70
2021/12/05 08:16:59;;;;;;;25.60;12.80;;;;;;;1.88;100.00;99812.50;5045917;28;20052;-74
2021/12/05 08:19:25;;;;;;;26.45;13.20;;;;;;;1.90;100.00;99808.19;5048400;28;20044;-70
2021/12/05 08:21:55;;;;;;;26.17;12.73;;;;;;;1.91;100.00;99823.00;5045134;28;20057;-70
2021/12/05 08:24:25;;;;;;;25.17;12.45;;;;;;;1.92;100.00;99809.09;5041649;28;20029;-70
2021/12/05 08:26:52;;;;;;;25.60;12.60;;;;;;;1.95;100.00;99811.78;5041334;28;20069;-70
2021/12/05 08:29:23;;;;;;;25.05;12.10;;;;;;;1.95;100.00;99818.72;5048382;28;20051;-70
2021/12/05 08:40:12;;;;;;;25.05;11.38;;;;;;;2.02;100.00;99831.91;5109857;27;20102;-70
2021/12/05 08:42:53;;;;;;;23.67;10.98;;;;;;;2.03;100.00;99825.88;5125161;27;20031;-70
2021/12/05 09:21:50;;;;;;;24.75;12.13;;;;;;;2.18;100.00;99872.25;5003021;28;20112;-70
2021/12/05 09:50:58;;;;;;;29.17;16.15;;;;;;;2.19;100.00;99907.06;4949687;28;20034;-70
2021/12/05 10:08:27;;;;;;;32.90;19.80;;;;;;;2.20;100.00;99951.44;5012759;28;20049;-70
2021/12/05 10:16:41;;;;;;;34.85;20.00;;;;;;;2.20;100.00;99956.66;4992689;28;20038;-73
2021/12/05 10:35:59;;;;;;;33.08;20.10;;;;;;;2.27;100.00;99983.75;5004483;28;20464;-71
2021/12/05 10:38:38;;;;;;;33.80;19.17;;;;;;;2.31;100.00;99980.38;5044198;28;20116;-71
2021/12/05 10:41:22;;;;;;;34.05;20.48;;;;;;;2.36;100.00;99983.09;5041264;28;20041;-72
2021/12/05 10:43:52;;;;;;;31.80;18.70;;;;;;;2.35;100.00;99979.59;5040447;28;20033;-70
2021/12/05 10:46:21;;;;;;;31.23;18.27;;;;;;;2.34;100.00;99979.56;5042972;28;20033;-74
2021/12/05 10:49:10;;;;;;;30.42;17.80;;;;;;;2.33;100.00;99990.84;5040237;28;20034;-72
2021/12/05 10:51:57;;;;;;;30.50;17.58;;;;;;;2.34;100.00;99990.00;5043806;28;20025;-70
2021/12/05 10:54:25;;;;;;;30.92;18.05;;;;;;;2.32;100.00;99995.19;5113602;27;20039;-70
2021/12/05 10:56:55;;;;;;;29.10;16.17;;;;;;;2.31;100.00;99997.75;5118549;27;20020;-69
2021/12/05 10:59:36;;;;;;;29.15;16.67;;;;;;;2.30;100.00;99998.59;5118511;27;20106;-70
2021/12/05 11:02:12;;;;;;;30.85;17.40;;;;;;;2.30;100.00;99994.28;5121159;27;20160;-71
2021/12/05 11:04:42;;;;;;;29.85;18.08;;;;;;;2.32;100.00;99995.19;5124118;27;20114;-69
2021/12/05 11:07:14;;;;;;;27.95;15.32;;;;;;;2.35;100.00;99997.00;5124160;27;20028;-71
2021/12/05 11:09:45;;;;;;;27.42;14.13;;;;;;;2.38;100.00;99994.47;5123978;27;20398;-70
2021/12/05 11:12:17;;;;;;;25.77;12.50;;;;;;;2.39;100.00;99997.09;5125234;27;20039;-71
2021/12/05 11:14:55;;;;;;;24.55;12.70;;;;;;;2.36;100.00;100002.25;5134136;27;20034;-71
2021/12/05 11:17:26;;;;;;;24.35;12.85;;;;;;;2.44;100.00;99997.19;5130074;27;20035;-71
2021/12/05 11:20:29;;;;;;;23.88;11.93;;;;;;;2.61;100.00;100000.22;5130582;27;20027;-71
2021/12/05 11:22:56;;;;;;;24.23;12.48;;;;;;;2.61;100.00;99995.00;5122784;27;20036;-71
2021/12/05 11:25:27;;;;;;;24.52;12.68;;;;;;;2.71;100.00;99991.75;5118033;27;20040;-71
2021/12/05 11:27:58;;;;;;;23.10;11.60;;;;;;;2.71;100.00;99996.97;5118479;27;20028;-69
2021/12/05 11:30:33;;;;;;;23.20;11.35;;;;;;;2.77;100.00;99997.09;5118143;27;20055;-71
2021/12/05 11:33:06;;;;;;;24.33;12.73;;;;;;;2.73;100.00;100010.94;5119144;27;20058;-71
2021/12/05 11:35:39;;;;;;;25.55;13.43;;;;;;;2.73;100.00;100004.84;5124729;27;20015;-71
2021/12/05 11:38:15;;;;;;;23.95;13.18;;;;;;;2.74;100.00;100012.69;5123986;27;20030;-69
2021/12/05 11:41:06;;;;;;;25.67;14.63;;;;;;;2.74;100.00;100015.31;5123519;27;20033;-70
2021/12/05 11:43:52;;;;;;;24.73;13.20;;;;;;;2.81;100.00;100018.94;5119555;27;20027;-72
2021/12/05 11:46:33;;;;;;;23.75;12.50;;;;;;;2.70;100.00;100021.28;5123457;27;20028;-69
2021/12/05 11:49:10;;;;;;;23.95;11.90;;;;;;;2.74;100.00;100030.97;5120796;27;20020;-71
2021/12/05 11:51:40;;;;;;;23.13;11.85;;;;;;;2.74;100.00;100033.56;5125556;27;20019;-69
2021/12/05 11:54:11;;;;;;;24.75;13.45;;;;;;;2.76;100.00;100037.09;5124081;27;20035;-69
2021/12/05 11:56:56;;;;;;;23.92;12.98;;;;;;;2.79;100.00;100041.50;5127814;27;20064;-71
2021/12/05 11:59:35;;;;;;;24.38;13.25;;;;;;;2.87;100.00;100039.97;5139539;27;20394;-69
2021/12/05 12:02:15;;;;;;;26.40;14.85;;;;;;;2.84;100.00;100039.00;5139425;27;20004;-68
2021/12/05 12:05:00;;;;;;;25.67;14.70;;;;;;;2.83;100.00;100048.56;5143125;27;20035;-69
2021/12/05 12:07:31;;;;;;;26.83;14.88;;;;;;;2.88;100.00;100048.66;5137753;28;20023;-69
2021/12/05 12:10:20;;;;;;;26.42;14.52;;;;;;;2.94;100.00;100051.41;5137181;28;20489;-71
2021/12/05 12:13:01;;;;;;;25.85;14.13;;;;;;;2.95;100.00;100047.97;5036903;28;20053;-68
2021/12/05 12:15:28;;;;;;;24.75;13.00;;;;;;;3.03;100.00;100051.63;5019936;28;20048;-71
2021/12/05 12:18:03;;;;;;;24.98;13.68;;;;;;;3.15;100.00;100051.03;5022430;28;20124;-68
2021/12/05 12:20:30;;;;;;;23.73;12.50;;;;;;;3.14;100.00;100051.88;5016284;28;20034;-69
2021/12/05 12:22:56;;;;;;;23.42;12.68;;;;;;;3.20;100.00;100044.16;5022042;28;20515;-69
2021/12/05 12:25:28;;;;;;;23.85;12.82;;;;;;;3.24;100.00;100047.72;5014087;28;20037;-69
2021/12/05 12:27:53;;;;;;;22.38;11.30;;;;;;;3.25;100.00;100052.13;5018720;28;20034;-69
2021/12/05 12:30:25;;;;;;;22.85;11.60;;;;;;;3.26;100.00;100052.16;5021913;28;20037;-68
2021/12/05 12:32:54;;;;;;;22.73;11.70;;;;;;;3.24;100.00;100061.66;5018925;28;20034;-68
2021/12/05 12:35:26;;;;;;;22.95;11.68;;;;;;;3.29;100.00;100059.13;5022016;28;20030;-69
2021/12/05 12:38:08;;;;;;;23.23;11.73;;;;;;;3.30;100.00;100066.13;5014757;28;20038;-70
2021/12/05 12:40:42;;;;;;;23.70;12.38;;;;;;;3.28;100.00;100060.88;5017482;28;20030;-69
2021/12/05 12:43:30;;;;;;;24.15;12.45;;;;;;;3.27;100.00;100066.06;5020631;28;20033;-70
2021/12/05 12:45:55;;;;;;;24.38;12.98;;;;;;;3.27;100.00;100066.06;5018633;28;20136;-69
2021/12/05 12:48:28;;;;;;;24.55;12.63;;;;;;;3.26;100.00;100074.75;5010433;28;20033;-69
2021/12/05 12:50:54;;;;;;;23.92;12.75;;;;;;;3.27;100.00;100082.63;5113151;28;20525;-69
2021/12/05 12:53:37;;;;;;;24.45;13.00;;;;;;;3.23;100.00;100088.66;5124215;27;20385;-70
2021/12/05 12:56:10;;;;;;;24.60;13.52;;;;;;;3.19;100.00;100085.91;5123707;27;20031;-69
2021/12/05 12:58:48;;;;;;;25.58;14.38;;;;;;;3.11;100.00;100086.63;5127488;27;20023;-69
2021/12/05 13:09:59;;;;;;;25.80;14.13;;;;;;;3.02;100.00;100094.25;5134921;27;20047;-69
2021/12/05 13:10:11;;;;;;;27.10;14.18;;;;;;;3.04;100.00;100097.78;5132827;27;20513;-69
2021/12/05 13:12:40;;;;;;;25.40;13.23;;;;;;;3.00;100.00;100101.19;5117073;27;20055;-70
2021/12/05 13:15:17;;;;;;;24.95;13.43;;;;;;;2.98;100.00;100105.47;5135460;27;20035;-69
2021/12/05 13:18:15;;;;;;;24.92;13.70;;;;;;;3.00;100.00;100106.41;5134605;27;20027;-70
2021/12/05 13:20:40;;;;;;;25.60;14.10;;;;;;;3.07;100.00;100104.81;5135060;27;20028;-69
2021/12/05 13:23:18;;;;;;;26.13;13.00;;;;;;;3.07;100.00;100110.94;5135424;27;20549;-69
2021/12/05 13:26:08;;;;;;;23.00;11.90;;;;;;;3.07;100.00;100113.53;5135973;27;20073;-69
2021/12/05 13:29:02;;;;;;;24.08;12.27;;;;;;;3.06;100.00;100113.47;5131707;27;20087;-69
2021/12/05 13:31:39;;;;;;;23.70;11.90;;;;;;;3.00;100.00;100119.47;5128625;27;20091;-70
2021/12/05 13:34:28;;;;;;;23.73;11.73;;;;;;;2.97;100.00;100128.09;5127012;27;20027;-69
2021/12/05 13:36:55;;;;;;;21.92;10.07;;;;;;;2.93;100.00;100128.88;5120380;27;20028;-69
2021/12/05 13:39:43;;;;;;;23.23;11.25;;;;;;;2.88;100.00;100133.09;5127672;27;20102;-69
2021/12/05 13:42:11;;;;;;;23.70;11.48;;;;;;;2.93;100.00;100133.22;5021242;28;20042;-68
2021/12/05 13:45:01;;;;;;;24.00;12.30;;;;;;;2.95;100.00;100142.84;5023414;28;20049;-68
2021/12/05 13:47:44;;;;;;;24.30;12.73;;;;;;;2.92;100.00;100147.13;5021234;28;20552;-68
2021/12/05 13:50:19;;;;;;;24.33;13.02;;;;;;;2.96;100.00;100144.59;5023095;28;20044;-70
2021/12/05 13:52:48;;;;;;;23.75;12.27;;;;;;;2.99;100.00;100143.81;5022410;28;20045;-68
2021/12/05 13:55:35;;;;;;;23.67;11.55;;;;;;;3.01;100.00;100154.28;5023437;28;20034;-69
2021/12/05 13:58:25;;;;;;;23.13;11.65;;;;;;;3.01;100.00;100147.31;5021597;28;20133;-68
2021/12/05 14:00:55;;;;;;;24.38;13.18;;;;;;;2.97;100.00;100148.09;5021431;28;20517;-69
2021/12/05 14:03:54;;;;;;;24.35;12.75;;;;;;;3.00;100.00;100155.13;5024270;28;20041;-69
2021/12/05 14:06:24;;;;;;;26.83;15.13;;;;;;;3.02;100.00;100156.06;5023319;28;20475;-69
2021/12/05 14:08:51;;;;;;;27.92;16.40;;;;;;;3.02;100.00;100161.28;5021232;28;20056;-69
2021/12/05 14:11:16;;;;;;;28.52;16.63;;;;;;;3.02;100.00;100159.53;5023338;28;20038;-68
2021/12/05 14:13:42;;;;;;;27.90;16.15;;;;;;;3.02;100.00;100170.00;5022200;28;20121;-71
2021/12/05 14:16:07;;;;;;;27.75;16.13;;;;;;;3.04;100.00;100172.63;5022109;28;20029;-68
2021/12/05 14:18:32;;;;;;;28.90;16.70;;;;;;;3.05;100.00;100171.81;5046819;27;20117;-69
2021/12/05 14:21:15;;;;;;;29.15;16.98;;;;;;;3.07;100.00;100178.84;5123505;27;20083;-68
2021/12/05 14:23:50;;;;;;;27.83;16.50;;;;;;;3.05;100.00;100179.63;5124768;27;20051;-68
2021/12/05 14:26:18;;;;;;;27.95;16.85;;;;;;;3.02;100.00;100190.00;5126109;27;20039;-69
2021/12/05 14:28:54;;;;;;;28.38;17.20;;;;;;;3.01;100.00;100196.94;5105988;27;20397;-68
2021/12/05 14:31:29;;;;;;;30.60;18.83;;;;;;;3.01;100.00;100204.78;5126228;27;20084;-68
2021/12/05 14:33:55;;;;;;;29.05;17.52;;;;;;;3.00;100.00;100207.34;5119524;27;20057;-69
2021/12/05 14:36:28;;;;;;;27.90;16.33;;;;;;;3.00;100.00;100225.63;5126389;27;20481;-68
2021/12/05 14:39:06;;;;;;;29.10;17.13;;;;;;;3.07;100.00;100231.06;5119207;27;20475;-68
2021/12/05 14:41:32;;;;;;;28.05;16.20;;;;;;;3.08;100.00;100238.03;5120687;27;20027;-68
2021/12/05 14:43:58;;;;;;;26.30;13.98;;;;;;;3.04;100.00;100237.94;5126369;27;20095;-69
2021/12/05 14:46:24;;;;;;;26.67;14.98;;;;;;;3.04;100.00;100232.72;5122781;27;20463;-69
2021/12/05 14:48:58;;;;;;;26.80;14.98;;;;;;;3.10;100.00;100236.38;5126239;27;20076;-69
2021/12/05 14:51:36;;;;;;;26.98;15.35;;;;;;;3.06;100.00;100239.75;5118760;27;20038;-69
2021/12/05 14:54:04;;;;;;;27.50;15.27;;;;;;;3.07;100.00;100246.75;5120499;27;20024;-69
2021/12/05 14:56:32;;;;;;;26.85;14.48;;;;;;;3.05;100.00;100252.75;5125705;27;20023;-69
2021/12/05 14:59:09;;;;;;;27.13;14.70;;;;;;;3.07;100.00;100259.81;5122824;27;20031;-70
2021/12/05 15:01:37;;;;;;;26.90;14.40;;;;;;;3.07;100.00;100258.91;5121157;27;20027;-69
2021/12/05 15:04:05;;;;;;;26.38;14.60;;;;;;;3.05;100.00;100258.84;5125637;27;20355;-69
2021/12/05 15:06:35;;;;;;;28.50;15.50;;;;;;;3.06;100.00;100265.84;5122925;27;20382;-69
2021/12/05 15:09:07;;;;;;;26.80;15.18;;;;;;;3.02;100.00;100266.63;5125253;27;20023;-69
2021/12/05 15:11:34;;;;;;;27.95;15.70;;;;;;;3.01;100.00;100283.13;5123068;27;20102;-69
2021/12/05 15:14:07;;;;;;;27.45;15.75;;;;;;;3.00;100.00;100280.47;5125546;27;20509;-70
2021/12/05 15:16:32;;;;;;;26.95;15.23;;;;;;;3.00;100.00;100285.69;5122808;27;20016;-69
2021/12/05 15:18:58;;;;;;;27.48;14.60;;;;;;;2.99;100.00;100294.41;5125033;27;20042;-69
2021/12/05 15:21:24;;;;;;;27.02;14.80;;;;;;;2.97;100.00;100292.63;5118040;27;20489;-69
2021/12/05 15:23:49;;;;;;;27.00;14.60;;;;;;;2.97;100.00;100302.16;5124701;27;20047;-69
2021/12/05 15:26:15;;;;;;;26.55;14.27;;;;;;;2.93;100.00;100306.44;5123695;27;20115;-69
2021/12/05 15:28:41;;;;;;;28.05;15.68;;;;;;;2.97;100.00;100307.38;5124035;27;20486;-69
2021/12/05 15:31:08;;;;;;;32.05;17.42;;;;;;;2.97;100.00;100317.81;5124311;27;20023;-69
2021/12/05 15:33:34;;;;;;;28.75;15.63;;;;;;;3.00;100.00;100317.03;5122850;27;20108;-69
2021/12/05 15:36:00;;;;;;;28.25;15.68;;;;;;;2.97;100.00;100323.06;5125203;27;20542;-69
2021/12/05 15:38:29;;;;;;;27.65;15.13;;;;;;;2.91;100.00;100331.63;5121831;27;20023;-69
2021/12/05 15:41:01;;;;;;;29.40;16.95;;;;;;;2.91;100.00;100339.47;5118099;27;20136;-69
2021/12/05 15:43:27;;;;;;;28.10;15.75;;;;;;;2.91;100.00;100338.56;5118507;27;20096;-69
2021/12/05 15:45:56;;;;;;;30.02;16.63;;;;;;;2.87;100.00;100339.31;5125615;27;20439;-69
2021/12/05 15:48:26;;;;;;;29.55;16.48;;;;;;;2.87;100.00;100344.53;5122176;27;20054;-69
2021/12/05 15:50:52;;;;;;;28.50;15.23;;;;;;;2.86;100.00;100351.50;5125165;27;20347;-69
2021/12/05 15:53:19;;;;;;;26.55;14.40;;;;;;;2.83;100.00;100355.75;5122179;27;20027;-69
2021/12/05 15:55:50;;;;;;;27.52;14.93;;;;;;;2.83;100.00;100368.81;5123883;27;20020;-69
2021/12/05 15:58:31;;;;;;;28.30;15.05;;;;;;;2.81;100.00;100371.38;5122833;27;20549;-70
2021/12/05 16:01:06;;;;;;;27.83;15.55;;;;;;;2.81;100.00;100373.09;5118159;27;20061;-69
2021/12/05 16:03:53;;;;;;;27.98;15.32;;;;;;;2.79;100.00;100376.53;5118708;27;20024;-69
2021/12/05 16:06:20;;;;;;;27.27;14.52;;;;;;;2.77;100.00;100373.00;5122205;27;20035;-69
2021/12/05 16:08:53;;;;;;;26.52;14.57;;;;;;;2.82;100.00;100380.09;5123802;28;20024;-68
2021/12/05 16:11:21;;;;;;;27.20;14.60;;;;;;;2.85;100.00;100385.41;5122077;28;20474;-69
2021/12/05 16:13:50;;;;;;;26.73;14.60;;;;;;;2.81;100.00;100396.59;5124083;28;20023;-68
2021/12/05 16:16:28;;;;;;;27.10;14.20;;;;;;;2.79;100.00;100402.63;5122831;28;20027;-68
2021/12/05 16:18:57;;;;;;;27.55;14.88;;;;;;;2.78;100.00;100393.06;5124903;28;20035;-69
2021/12/05 16:21:27;;;;;;;27.42;14.35;;;;;;;2.79;100.00;100402.63;5121483;28;20096;-68
2021/12/05 16:23:54;;;;;;;29.15;17.30;;;;;;;2.77;100.00;100406.94;5124599;28;20534;-68
2021/12/05 16:26:27;;;;;;;30.20;17.08;;;;;;;2.81;100.00;100409.63;5121806;28;20039;-68
2021/12/05 16:29:00;;;;;;;31.90;20.45;;;;;;;2.76;100.00;100423.44;5125473;27;20381;-69
2021/12/05 16:31:29;;;;;;;29.33;17.48;;;;;;;2.76;100.00;100417.34;5121667;27;20028;-68
2021/12/05 16:34:18;;;;;;;28.90;17.08;;;;;;;2.72;100.00;100425.91;5121813;27;20377;-69
2021/12/05 16:36:54;;;;;;;28.50;17.30;;;;;;;2.71;100.00;100425.03;5126493;27;20055;-68
2021/12/05 16:39:29;;;;;;;27.55;16.40;;;;;;;2.72;100.00;100431.13;5125890;27;20493;-69
2021/12/05 16:41:57;;;;;;;29.83;18.55;;;;;;;2.69;100.00;100436.28;5121055;27;20023;-69
2021/12/05 16:44:28;;;;;;;28.27;17.42;;;;;;;2.71;100.00;100438.09;5128560;27;20083;-69
2021/12/05 16:47:00;;;;;;;27.40;14.80;;;;;;;2.70;100.00;100438.94;5126077;27;20027;-68
2021/12/05 16:49:33;;;;;;;26.75;14.73;;;;;;;2.69;100.00;100442.38;5121356;27;20115;-69
2021/12/05 16:52:08;;;;;;;27.48;16.10;;;;;;;2.72;100.00;100442.50;5121684;27;20055;-69
2021/12/05 16:54:44;;;;;;;27.50;16.15;;;;;;;2.75;100.00;100447.81;5104809;27;20036;-69
2021/12/05 16:57:13;;;;;;;27.17;15.77;;;;;;;2.74;100.00;100442.53;5126980;27;20023;-70
2021/12/05 16:59:43;;;;;;;30.08;17.75;;;;;;;2.71;100.00;100451.16;5126394;27;20035;-80
2021/12/05 17:02:20;;;;;;;31.95;19.58;;;;;;;2.70;100.00;100449.38;5127132;27;20064;-78
2021/12/05 17:04:56;;;;;;;30.38;18.48;;;;;;;2.70;100.00;100457.19;5127148;27;20693;-73
2021/12/05 17:07:41;;;;;;;30.77;18.63;;;;;;;2.73;100.00;100459.91;5125213;27;20024;-71
2021/12/05 17:10:24;;;;;;;30.83;18.42;;;;;;;2.68;100.00;100461.50;5123278;27;20087;-79
2021/12/05 17:12:53;;;;;;;30.65;18.75;;;;;;;2.74;100.00;100469.50;5125132;27;20466;-70
2021/12/05 17:15:23;;;;;;;31.15;18.55;;;;;;;2.71;100.00;100476.34;5114392;27;20470;-72
2021/12/05 17:17:53;;;;;;;29.15;17.38;;;;;;;2.72;100.00;100478.13;5112030;27;20028;-70
2021/12/05 17:20:24;;;;;;;30.80;18.02;;;;;;;2.70;100.00;100491.13;5117561;27;20019;-74
2021/12/05 17:23:01;;;;;;;29.90;17.75;;;;;;;2.72;100.00;100489.47;5116325;27;20035;-73